Time;durP1;ratioP1;P1;durP2;ratioP2;P2;SDS_P1;SDS_P2;PMS_P1;PMS_P2;Temp;Humidity;BMP_temperature;BMP_pressure;BME280_temperature;BME280_humidity;BME280_pressure;Samples;Min_cycle;Max_cycle;Signal;HPM_P1;HPM_P2
2022/05/17 00:01:53;;;;;;;;;6.50;6.50;;;;;22.27;50.32;101273.47;5074803;27;45449;-64
2022/05/17 00:04:20;;;;;;;;;6.33;6.00;;;;;22.26;50.87;101282.56;5075773;27;45657;-61
2022/05/17 00:06:46;;;;;;;;;6.67;6.00;;;;;22.19;50.50;101265.19;5075370;27;45662;-61
2022/05/17 00:09:11;;;;;;;;;7.67;7.67;;;;;22.17;50.75;101272.63;5074423;27;45309;-64
2022/05/17 00:11:37;;;;;;;;;8.33;6.00;;;;;22.17;51.04;101275.34;5074448;27;46943;-61
2022/05/17 00:14:02;;;;;;;;;5.75;4.75;;;;;22.15;50.88;101268.34;5075370;27;45191;-61
2022/05/17 00:16:28;;;;;;;;;7.33;5.33;;;;;22.12;50.88;101266.75;5073207;27;45617;-61
2022/05/17 00:18:53;;;;;;;;;7.33;5.33;;;;;22.11;50.54;101272.31;5075592;27;45326;-60
2022/05/17 00:21:19;;;;;;;;;6.50;6.50;;;;;22.05;51.33;101262.91;5073685;27;46801;-61
2022/05/17 00:23:45;;;;;;;;;6.50;6.50;;;;;22.05;51.46;101262.91;5070991;27;45615;-62
2022/05/17 00:26:11;;;;;;;;;7.00;7.00;;;;;22.03;51.30;101262.19;5051731;28;45354;-62
2022/05/17 00:28:37;;;;;;;;;6.67;6.00;;;;;22.00;51.32;101262.47;5070827;27;45460;-61
2022/05/17 00:31:06;;;;;;;;;8.50;6.25;;;;;21.98;52.04;101267.16;5074870;27;45331;-61
2022/05/17 00:33:32;;;;;;;;;5.00;5.00;;;;;21.98;51.25;101262.59;5073835;27;45397;-62
2022/05/17 00:35:58;;;;;;;;;6.33;6.33;;;;;21.95;51.84;101267.47;5074514;27;45525;-60
2022/05/17 00:38:23;;;;;;;;;9.33;7.00;;;;;21.86;51.94;101261.03;5073826;27;45638;-61
2022/05/17 00:40:49;;;;;;;;;6.67;5.00;;;;;21.89;52.52;101263.47;5071682;28;45375;-61
2022/05/17 00:43:28;;;;;;;;;5.75;5.00;;;;;21.84;52.18;101259.47;5074699;27;45448;-66
2022/05/17 00:45:58;;;;;;;;;6.50;6.00;;;;;21.82;52.50;101258.78;5078221;27;45345;-62
2022/05/17 00:48:24;;;;;;;;;8.67;7.00;;;;;21.82;52.34;101261.47;5078292;27;45364;-65
2022/05/17 00:50:52;;;;;;;;;9.33;7.33;;;;;21.75;52.52;101256.66;5077530;27;46211;-61
2022/05/17 00:53:32;;;;;;;;;7.00;7.00;;;;;21.75;52.52;101262.06;5077834;27;45568;-62
2022/05/17 00:56:00;;;;;;;;;7.75;6.25;;;;;21.74;52.89;101252.19;5079090;27;45366;-63
2022/05/17 00:58:33;;;;;;;;;5.67;5.67;;;;;21.74;53.05;101259.47;5076346;27;45430;-59
2022/05/17 01:01:10;;;;;;;;;8.67;7.00;;;;;21.69;52.44;101250.94;5078227;27;46141;-61
2022/05/17 01:03:56;;;;;;;;;7.00;7.00;;;;;21.66;53.24;101257.50;5092660;27;45434;-60
2022/05/17 01:06:27;;;;;;;;;6.00;6.00;;;;;21.61;53.52;101243.50;5074207;28;45405;-61
2022/05/17 01:08:53;;;;;;;;;7.33;6.67;;;;;21.51;53.03;101241.81;5077373;27;45362;-61
2022/05/17 01:11:18;;;;;;;;;10.33;8.67;;;;;21.50;53.04;101235.53;5076913;27;46187;-60
2022/05/17 01:16:29;;;;;;;;;8.50;6.75;;;;;21.50;53.00;101246.38;5069539;28;45445;-62
2022/05/17 01:18:55;;;;;;;;;5.00;5.00;;;;;21.46;53.69;101250.34;5070576;27;45452;-62
2022/05/17 01:21:20;;;;;;;;;6.00;6.00;;;;;21.44;53.39;101249.63;5078118;27;45571;-61
2022/05/17 01:23:45;;;;;;;;;6.00;5.00;;;;;21.43;53.25;101251.47;5078252;27;45393;-61
2022/05/17 01:26:15;;;;;;;;;5.33;5.33;;;;;21.41;53.20;101241.78;5077208;27;45417;-62
2022/05/17 01:28:41;;;;;;;;;6.50;5.00;;;;;21.38;52.78;101247.50;5075210;27;45276;-64
2022/05/17 01:31:07;;;;;;;;;5.33;5.33;;;;;21.36;52.99;101247.63;5072948;27;45484;-66
2022/05/17 01:33:36;;;;;;;;;6.33;6.33;;;;;21.36;53.05;101246.78;5077764;27;45315;-65
2022/05/17 01:36:04;;;;;;;;;9.50;5.25;;;;;21.27;53.11;101239.50;5092507;27;45455;-65
2022/05/17 01:38:30;;;;;;;;;4.75;4.75;;;;;21.33;53.02;101250.59;5077987;27;45327;-60
2022/05/17 01:40:56;;;;;;;;;5.33;5.00;;;;;21.32;52.96;101245.31;5076270;27;45385;-63
2022/05/17 01:43:21;;;;;;;;;5.75;4.50;;;;;21.28;53.06;101243.91;5076294;27;45773;-64
2022/05/17 01:45:47;;;;;;;;;6.00;6.00;;;;;21.31;53.29;101249.03;5076871;27;45376;-62
2022/05/17 01:48:12;;;;;;;;;10.00;6.25;;;;;21.30;53.23;101253.59;5077941;27;45388;-61
2022/05/17 01:50:38;;;;;;;;;5.00;5.00;;;;;21.27;53.30;101240.34;5076277;27;46167;-62
2022/05/17 01:53:04;;;;;;;;;4.50;4.50;;;;;21.28;53.02;101246.59;5077851;27;45476;-63
2022/05/17 01:55:29;;;;;;;;;5.00;5.00;;;;;21.26;53.45;101243.19;5075586;27;45469;-61
2022/05/17 01:57:55;;;;;;;;;11.33;6.00;;;;;21.22;53.55;101237.16;5078260;27;45563;-63
2022/05/17 02:00:23;;;;;;;;;4.00;4.00;;;;;21.25;53.33;101246.84;5076441;27;45496;-62
2022/05/17 02:02:50;;;;;;;;;5.33;5.33;;;;;21.25;53.27;101244.16;5074521;27;45524;-61
2022/05/17 02:05:17;;;;;;;;;6.00;6.00;;;;;21.21;53.47;101247.13;5075767;27;45515;-61
2022/05/17 02:07:43;;;;;;;;;7.00;4.75;;;;;21.19;53.21;101254.50;5076513;27;45540;-60
2022/05/17 02:10:09;;;;;;;;;5.00;5.00;;;;;21.19;52.91;101276.16;5076630;27;45352;-60
2022/05/17 02:12:34;;;;;;;;;4.00;4.00;;;;;21.16;53.24;101275.59;5075391;27;45834;-62
2022/05/17 02:15:00;;;;;;;;;5.67;5.67;;;;;21.14;53.45;101267.63;5077914;27;45383;-60
2022/05/17 02:17:25;;;;;;;;;6.00;5.50;;;;;21.10;53.02;101270.75;5071323;27;45367;-62
2022/05/17 02:19:51;;;;;;;;;4.00;4.00;;;;;21.06;52.59;101272.84;5067652;27;45425;-64
2022/05/17 02:22:16;;;;;;;;;2.50;2.50;;;;;21.07;52.91;101261.03;5076898;27;45570;-61
2022/05/17 02:24:41;;;;;;;;;3.67;3.67;;;;;21.09;52.96;101264.44;5075072;27;45749;-61
2022/05/17 02:27:07;;;;;;;;;5.67;4.00;;;;;21.03;52.68;101262.31;5091790;27;45516;-64
2022/05/17 02:29:32;;;;;;;;;5.00;5.00;;;;;21.10;52.50;101278.84;5075802;28;46116;-67
2022/05/17 02:31:58;;;;;;;;;4.33;4.33;;;;;21.12;52.52;101275.00;5077071;27;45442;-67
2022/05/17 02:34:25;;;;;;;;;5.00;5.00;;;;;21.11;52.61;101272.44;5076208;27;47058;-62
2022/05/17 02:36:50;;;;;;;;;6.00;6.00;;;;;21.12;52.52;101276.88;5076212;27;45504;-62
2022/05/17 02:39:16;;;;;;;;;5.33;5.33;;;;;21.11;52.25;101277.84;5075894;27;45275;-63
2022/05/17 02:41:42;;;;;;;;;5.33;4.00;;;;;21.07;52.48;101277.25;5076125;27;45441;-63
2022/05/17 02:44:07;;;;;;;;;3.50;3.50;;;;;21.08;52.50;101270.00;5075468;27;45393;-59
2022/05/17 02:46:33;;;;;;;;;4.00;4.00;;;;;21.09;52.46;101274.41;5077320;27;45218;-62
2022/05/17 02:49:02;;;;;;;;;3.00;3.00;;;;;21.07;52.26;101271.84;5075069;27;47095;-60
2022/05/17 02:51:28;;;;;;;;;5.25;5.25;;;;;21.04;52.41;101269.44;5074855;28;45548;-61
2022/05/17 02:53:54;;;;;;;;;4.00;4.00;;;;;21.01;52.39;101266.16;5076271;27;45408;-61
2022/05/17 02:56:19;;;;;;;;;6.67;5.00;;;;;21.01;52.76;101268.84;5067559;27;45624;-60
2022/05/17 02:58:45;;;;;;;;;6.75;5.00;;;;;21.01;53.00;101274.25;5087271;27;46895;-61
2022/05/17 03:01:10;;;;;;;;;5.00;5.00;;;;;21.02;52.97;101274.13;5074195;27;45415;-65
2022/05/17 03:03:38;;;;;;;;;6.67;5.00;;;;;20.96;52.62;101258.41;5076725;27;45903;-60
2022/05/17 03:06:04;;;;;;;;;3.33;3.33;;;;;21.00;52.88;101265.28;5076358;28;45385;-59
2022/05/17 03:08:30;;;;;;;;;6.33;6.00;;;;;21.03;52.90;101269.56;5073225;27;46194;-64
2022/05/17 03:10:55;;;;;;;;;4.00;4.00;;;;;21.00;52.49;101261.72;5091488;27;45432;-60
2022/05/17 03:13:20;;;;;;;;;4.67;4.00;;;;;21.01;52.83;101261.59;5091513;27;45484;-62
2022/05/17 03:15:50;;;;;;;;;7.75;4.75;;;;;21.02;52.46;101266.00;5066322;27;45409;-61
2022/05/17 03:18:15;;;;;;;;;7.67;6.00;;;;;21.00;52.99;101264.44;5074901;27;45981;-62
2022/05/17 03:20:41;;;;;;;;;5.00;5.00;;;;;20.99;52.56;101263.59;5074308;27;45563;-60
2022/05/17 03:23:06;;;;;;;;;3.00;3.00;;;;;21.00;52.73;101259.88;5076724;27;45266;-64
2022/05/17 03:25:32;;;;;;;;;5.00;5.00;;;;;21.02;52.64;101260.59;5090291;27;45346;-62
2022/05/17 03:27:58;;;;;;;;;5.00;4.33;;;;;20.98;52.92;101261.88;5076725;27;45271;-65
2022/05/17 03:30:23;;;;;;;;;6.00;5.00;;;;;20.99;52.83;101263.59;5074230;27;45386;-62
2022/05/17 03:32:48;;;;;;;;;6.00;6.00;;;;;20.99;53.25;101252.75;5075233;27;45444;-64
2022/05/17 03:35:14;;;;;;;;;6.67;5.00;;;;;20.97;53.37;101246.66;5075253;28;45444;-60
2022/05/17 03:37:39;;;;;;;;;7.33;6.00;;;;;20.93;53.71;101247.88;5075811;27;45282;-62
2022/05/17 03:40:07;;;;;;;;;7.00;6.00;;;;;20.89;53.77;101251.88;5074644;28;45567;-63
2022/05/17 03:42:33;;;;;;;;;6.33;6.33;;;;;20.95;53.44;101255.84;5075278;27;45458;-63
2022/05/17 03:44:58;;;;;;;;;5.33;5.00;;;;;20.93;53.86;101247.88;5073849;27;45513;-62
2022/05/17 03:47:24;;;;;;;;;5.00;5.00;;;;;20.88;53.85;101255.56;5074424;27;46217;-61
2022/05/17 03:49:49;;;;;;;;;5.67;5.67;;;;;20.87;54.06;101249.31;5074941;28;45564;-62
2022/05/17 03:52:15;;;;;;;;;6.33;6.00;;;;;20.85;53.72;101259.41;5075030;27;45286;-61
2022/05/17 03:54:40;;;;;;;;;6.67;5.00;;;;;20.86;53.73;101262.97;5075468;27;45942;-61
2022/05/17 03:57:07;;;;;;;;;11.00;9.33;;;;;20.80;53.68;101248.13;5073785;27;45421;-59
2022/05/17 03:59:33;;;;;;;;;7.00;6.33;;;;;20.84;53.83;101259.53;5075779;27;45237;-61
2022/05/17 04:01:58;;;;;;;;;8.33;7.33;;;;;20.78;53.75;101254.66;5070156;27;45361;-64
2022/05/17 04:04:24;;;;;;;;;5.67;3.67;;;;;20.77;54.02;101252.97;5073734;27;45380;-61
2022/05/17 04:06:49;;;;;;;;;7.00;7.00;;;;;20.74;54.00;101250.53;5075071;27;45477;-61
2022/05/17 04:09:14;;;;;;;;;11.67;7.00;;;;;20.74;54.06;101261.34;5075480;27;45512;-65
2022/05/17 04:11:40;;;;;;;;;8.67;7.00;;;;;20.73;54.42;101257.78;5074180;27;46081;-64
2022/05/17 04:14:06;;;;;;;;;7.33;7.33;;;;;20.74;54.35;101259.50;5075717;27;45611;-63
2022/05/17 04:16:34;;;;;;;;;6.33;6.33;;;;;20.77;54.20;101259.22;5074606;27;45472;-61
2022/05/17 04:18:59;;;;;;;;;7.00;7.00;;;;;20.81;54.21;101260.66;5074310;27;45238;-61
2022/05/17 04:21:26;;;;;;;;;20.33;17.00;;;;;20.80;54.41;101258.09;5078934;27;45658;-61
2022/05/17 04:23:51;;;;;;;;;11.33;9.67;;;;;20.76;54.50;101265.63;5078146;27;45542;-62
2022/05/17 04:26:18;;;;;;;;;10.67;8.00;;;;;20.72;55.22;101261.47;5077097;27;45471;-63
2022/05/17 04:28:44;;;;;;;;;44.00;35.00;;;;;20.69;55.15;101266.28;5078576;27;45388;-61
2022/05/17 04:31:09;;;;;;;;;8.00;6.00;;;;;20.68;55.22;101265.41;5076999;27;45575;-61
2022/05/17 04:33:34;;;;;;;;;68.75;52.75;;;;;20.68;55.07;101264.56;5077775;27;45599;-62
2022/05/17 04:36:00;;;;;;;;;12.33;12.33;;;;;20.68;55.37;101269.97;5078407;27;46263;-65
2022/05/17 04:38:25;;;;;;;;;45.00;37.67;;;;;20.67;55.73;101270.97;5078238;27;45461;-64
2022/05/17 04:40:50;;;;;;;;;13.00;10.00;;;;;20.60;55.74;101273.38;5078534;27;45325;-64
2022/05/17 04:43:16;;;;;;;;;21.00;17.00;;;;;20.56;55.93;101271.91;5078804;27;45318;-60
2022/05/17 04:45:44;;;;;;;;;15.00;12.00;;;;;20.52;55.95;101274.03;5078296;28;45524;-61
2022/05/17 04:48:09;;;;;;;;;19.00;18.67;;;;;20.53;56.18;101278.44;5076786;27;45384;-63
2022/05/17 04:50:37;;;;;;;;;18.33;13.33;;;;;20.50;56.26;101276.00;5077615;27;45348;-62
2022/05/17 04:53:02;;;;;;;;;37.50;31.00;;;;;20.49;56.13;101277.00;5076567;27;45164;-62
2022/05/17 04:55:28;;;;;;;;;54.00;41.00;;;;;20.51;56.76;101285.81;5079301;27;45444;-61
2022/05/17 04:57:54;;;;;;;;;40.67;34.67;;;;;20.48;56.39;101282.53;5068772;27;45474;-61
2022/05/17 05:00:22;;;;;;;;;24.33;16.33;;;;;20.51;56.37;101284.97;5076373;27;45573;-64
2022/05/17 05:02:48;;;;;;;;;78.00;55.75;;;;;20.49;56.82;101290.50;5076129;27;45480;-67
2022/05/17 05:05:15;;;;;;;;;21.33;17.67;;;;;20.50;56.35;101289.50;5091957;27;47642;-64
2022/05/17 05:07:41;;;;;;;;;11.00;11.00;;;;;20.50;57.08;101294.91;5076366;27;46479;-61
2022/05/17 05:10:07;;;;;;;;;12.33;9.67;;;;;20.46;56.61;101293.47;5076078;27;45354;-62
2022/05/17 05:12:33;;;;;;;;;13.00;13.00;;;;;20.49;56.70;101293.22;5076903;27;45304;-62
2022/05/17 05:15:00;;;;;;;;;13.00;11.67;;;;;20.51;56.64;101302.03;5077790;27;45716;-61
2022/05/17 05:17:29;;;;;;;;;8.33;8.33;;;;;20.49;56.80;101303.16;5090336;27;45571;-62
2022/05/17 05:19:54;;;;;;;;;15.00;11.00;;;;;20.49;57.16;101317.53;5091298;27;45482;-61
2022/05/17 05:22:20;;;;;;;;;10.00;10.00;;;;;20.48;57.05;101313.13;5076614;27;46617;-62
2022/05/17 05:24:45;;;;;;;;;8.67;8.67;;;;;20.53;57.14;101310.84;5077023;27;46036;-63
2022/05/17 05:27:11;;;;;;;;;8.33;8.33;;;;;20.55;56.92;101314.28;5076125;27;45547;-65
2022/05/17 05:29:36;;;;;;;;;15.00;9.00;;;;;20.56;56.93;101312.44;5075330;27;45681;-62
2022/05/17 05:32:02;;;;;;;;;9.00;8.00;;;;;20.58;56.77;101319.44;5074891;27;45555;-63
2022/05/17 05:34:27;;;;;;;;;9.00;9.00;;;;;20.57;56.96;101315.03;5072810;27;46678;-65
2022/05/17 05:36:54;;;;;;;;;11.33;10.00;;;;;20.58;56.72;101308.63;5077750;27;45441;-60
2022/05/17 05:39:21;;;;;;;;;7.67;7.00;;;;;20.64;56.27;101315.34;5075438;28;45577;-64
2022/05/17 05:41:47;;;;;;;;;9.33;9.33;;;;;20.68;56.23;101324.88;5077541;27;45549;-65
2022/05/17 05:44:13;;;;;;;;;9.00;9.00;;;;;20.74;56.30;101318.97;5076303;28;46759;-62
2022/05/17 05:46:38;;;;;;;;;10.00;10.00;;;;;20.76;56.25;101324.22;5083961;27;45527;-63
2022/05/17 05:49:04;;;;;;;;;10.00;9.00;;;;;20.79;56.33;101332.06;5077343;27;45619;-61
2022/05/17 05:51:29;;;;;;;;;11.67;10.00;;;;;20.78;56.40;101327.66;5076614;27;45386;-63
2022/05/17 05:53:55;;;;;;;;;10.67;10.67;;;;;20.83;56.28;101333.50;5076002;28;47600;-60
2022/05/17 05:56:20;;;;;;;;;14.00;11.67;;;;;20.86;56.18;101338.66;5077629;28;45348;-62
2022/05/17 05:58:46;;;;;;;;;10.67;7.67;;;;;20.89;55.78;101332.97;5078078;28;45707;-60
2022/05/17 06:01:12;;;;;;;;;7.00;6.00;;;;;20.94;56.09;101328.00;5078144;27;45678;-60
2022/05/17 06:03:38;;;;;;;;;9.33;8.00;;;;;21.00;55.79;101334.75;5096806;27;47064;-62
2022/05/17 06:06:05;;;;;;;;;9.33;6.33;;;;;21.04;54.58;101334.31;5097345;27;45266;-62
2022/05/17 06:08:30;;;;;;;;;6.67;6.33;;;;;21.06;54.70;101329.63;5084055;27;45372;-65
2022/05/17 06:10:56;;;;;;;;;6.00;6.00;;;;;21.12;53.55;101333.66;5077842;28;45543;-65
2022/05/17 06:13:22;;;;;;;;;11.67;7.67;;;;;21.17;53.12;101332.25;5076296;28;45877;-63
2022/05/17 06:15:51;;;;;;;;;9.00;8.00;;;;;21.21;52.62;101328.28;5077889;27;45335;-63
2022/05/17 06:18:17;;;;;;;;;6.00;6.00;;;;;21.20;52.65;101321.16;5076571;27;45353;-62
2022/05/17 06:20:49;;;;;;;;;9.00;8.00;;;;;21.28;52.78;101333.19;5076997;27;45613;-63
2022/05/17 06:23:15;;;;;;;;;7.00;7.00;;;;;21.34;53.02;101338.88;5075939;28;46158;-61
2022/05/17 06:25:41;;;;;;;;;6.67;6.67;;;;;21.37;51.77;101340.47;5076209;27;45333;-61
2022/05/17 06:28:06;;;;;;;;;5.00;4.00;;;;;21.43;52.04;101335.34;5077875;27;45379;-62
2022/05/17 06:30:32;;;;;;;;;9.67;9.00;;;;;21.47;51.58;101335.94;5074967;28;45517;-64
2022/05/17 06:32:57;;;;;;;;;11.00;8.00;;;;;21.48;51.79;101340.34;5073004;28;45492;-63
2022/05/17 06:35:23;;;;;;;;;6.33;6.33;;;;;21.47;51.88;101334.06;5077727;27;45393;-62
2022/05/17 06:37:48;;;;;;;;;7.00;7.00;;;;;21.56;51.40;101340.53;5081968;27;45296;-63
2022/05/17 06:40:14;;;;;;;;;9.67;5.00;;;;;21.59;51.33;101328.56;5074871;28;45502;-69
2022/05/17 06:42:39;;;;;;;;;9.67;7.67;;;;;21.65;51.21;101342.41;5076157;28;46094;-63
2022/05/17 06:45:06;;;;;;;;;5.75;5.75;;;;;21.68;50.70;101325.03;5076706;28;45369;-62
2022/05/17 06:47:31;;;;;;;;;7.00;5.50;;;;;21.71;50.53;101331.00;5075818;28;45589;-63
2022/05/17 06:49:57;;;;;;;;;8.33;5.33;;;;;21.76;50.04;101338.72;5077455;28;45436;-67
2022/05/17 06:52:23;;;;;;;;;5.33;5.33;;;;;21.78;50.10;101326.75;5077351;27;46573;-64
2022/05/17 06:54:49;;;;;;;;;9.00;8.67;;;;;21.85;49.96;101337.00;5080089;27;45397;-65
2022/05/17 06:57:16;;;;;;;;;11.33;7.33;;;;;21.91;49.73;101336.47;5073793;27;45277;-66
2022/05/17 06:59:44;;;;;;;;;6.00;6.00;;;;;21.91;49.68;101325.63;5075682;28;45353;-64
2022/05/17 07:02:10;;;;;;;;;12.67;11.00;;;;;22.00;49.54;101332.88;5075274;28;46299;-69
2022/05/17 07:04:36;;;;;;;;;18.00;14.00;;;;;22.00;49.42;101331.03;5074884;28;45427;-64
2022/05/17 07:07:04;;;;;;;;;5.67;5.67;;;;;22.06;49.01;101329.66;5058989;28;45270;-72
2022/05/17 07:09:30;;;;;;;;;7.50;7.50;;;;;22.08;49.00;101338.50;5078901;27;45557;-65
2022/05/17 07:14:40;;;;;;;;;13.00;11.33;;;;;22.15;48.89;101334.22;5076814;28;45350;-61
2022/05/17 07:17:10;;;;;;;;;15.67;12.67;;;;;22.13;48.86;101321.78;5074686;27;45381;-64
2022/05/17 07:19:35;;;;;;;;;8.00;8.00;;;;;22.12;48.37;101318.22;5082545;27;45365;-63
2022/05/17 07:22:02;;;;;;;;;8.00;6.75;;;;;22.21;49.28;101333.63;5073019;28;47205;-64
2022/05/17 07:24:29;;;;;;;;;13.33;7.67;;;;;22.24;48.52;101333.34;5074525;28;45523;-69
2022/05/17 07:26:54;;;;;;;;;10.00;8.00;;;;;22.17;48.44;101326.81;5075088;27;45492;-68
2022/05/17 07:29:20;;;;;;;;;9.33;8.33;;;;;22.24;48.56;101335.19;5076312;27;45620;-64
2022/05/17 07:31:45;;;;;;;;;9.00;7.00;;;;;22.27;48.44;101333.09;5073563;28;45931;-67
2022/05/17 07:34:12;;;;;;;;;7.00;7.00;;;;;22.32;47.85;101338.06;5075877;27;45372;-64
2022/05/17 07:36:37;;;;;;;;;9.33;7.00;;;;;22.31;48.00;101334.50;5070869;27;45441;-63
2022/05/17 07:39:03;;;;;;;;;6.33;6.33;;;;;22.39;48.07;101344.59;5075022;28;45431;-68
2022/05/17 07:41:28;;;;;;;;;6.50;6.50;;;;;22.46;48.52;101342.19;5075766;27;45482;-64
2022/05/17 07:43:54;;;;;;;;;6.33;6.33;;;;;22.47;47.70;101330.34;5076269;27;45679;-67
2022/05/17 07:46:19;;;;;;;;;8.00;6.00;;;;;22.50;47.55;101333.59;5074383;27;45376;-70
2022/05/17 07:48:44;;;;;;;;;8.00;7.00;;;;;22.56;47.46;101332.19;5074088;28;45508;-65
2022/05/17 07:51:10;;;;;;;;;6.00;5.25;;;;;22.58;47.23;101324.75;5075668;27;45854;-66
2022/05/17 07:53:36;;;;;;;;;8.50;7.00;;;;;22.68;46.78;101331.03;5075482;27;45491;-66
2022/05/17 07:56:04;;;;;;;;;4.00;4.00;;;;;22.75;46.33;101332.13;5074712;27;45492;-64
2022/05/17 07:58:29;;;;;;;;;6.00;4.25;;;;;22.77;45.99;101324.69;5072631;28;45496;-64
2022/05/17 08:00:55;;;;;;;;;6.25;5.00;;;;;22.84;45.23;101330.44;5075394;27;46030;-67
2022/05/17 08:03:21;;;;;;;;;5.50;5.25;;;;;22.90;44.67;101324.41;5071729;28;45387;-70
2022/05/17 08:05:47;;;;;;;;;5.50;4.00;;;;;23.10;44.33;101319.78;5075124;27;45787;-66
2022/05/17 08:08:13;;;;;;;;;5.00;4.25;;;;;23.54;40.55;101328.94;5073292;28;45394;-63
2022/05/17 08:10:39;;;;;;;;;5.00;4.00;;;;;23.79;40.25;101327.41;5072946;27;46066;-63
2022/05/17 08:13:05;;;;;;;;;5.00;5.00;;;;;23.96;39.97;101328.41;5071152;28;45725;-68
2022/05/17 08:15:32;;;;;;;;;3.00;3.00;;;;;23.92;36.31;101333.31;5074059;27;45451;-66
2022/05/17 08:17:58;;;;;;;;;7.00;3.00;;;;;24.06;35.22;101327.31;5071753;28;45619;-67
2022/05/17 08:20:23;;;;;;;;;7.25;6.25;;;;;24.22;36.66;101329.34;5073320;27;46242;-64
2022/05/17 08:22:49;;;;;;;;;8.00;6.00;;;;;24.49;39.48;101331.13;5072326;27;45484;-63
2022/05/17 08:28:04;;;;;;;;;9.25;9.25;;;;;25.32;40.01;101322.47;5064327;28;45237;-63
2022/05/17 08:30:30;;;;;;;;;14.00;9.75;;;;;25.67;40.03;101327.69;5071740;27;46016;-68
2022/05/17 08:33:17;;;;;;;;;9.60;7.20;;;;;26.06;38.60;101319.78;5073039;27;45609;-71
2022/05/17 08:35:58;;;;;;;;;8.75;8.75;;;;;26.59;35.61;101318.44;5075067;27;45508;-65
2022/05/17 08:38:31;;;;;;;;;7.50;7.50;;;;;26.98;35.90;101321.25;5074027;28;45794;-65
2022/05/17 08:41:05;;;;;;;;;9.25;9.00;;;;;27.38;34.34;101324.88;5075848;28;45376;-49
2022/05/17 08:43:36;;;;;;;;;12.60;7.60;;;;;27.78;34.60;101322.97;5074418;28;45602;-49
2022/05/17 08:46:29;;;;;;;;;5.80;5.80;;;;;28.18;32.63;101322.69;5075449;28;45478;-50
2022/05/17 08:49:24;;;;;;;;;5.40;4.00;;;;;28.52;32.57;101312.31;5071998;28;46617;-50
2022/05/17 08:52:07;;;;;;;;;5.80;4.00;;;;;28.85;34.33;101305.47;5079669;27;46287;-49
2022/05/17 08:54:43;;;;;;;;;3.00;3.00;;;;;29.27;32.64;101301.25;5077101;27;45469;-50
2022/05/17 08:57:48;;;;;;;;;4.20;3.00;;;;;29.56;31.71;101306.72;5075103;27;45365;-47
2022/05/17 09:00:21;;;;;;;;;6.40;3.80;;;;;29.77;29.13;101319.59;5075896;28;45340;-51
2022/05/17 09:03:28;;;;;;;;;5.80;3.60;;;;;30.01;31.86;101307.41;5066892;27;46105;-54
2022/05/17 09:06:01;;;;;;;;;4.00;2.60;;;;;30.24;29.65;101310.81;5069066;28;45428;-48
2022/05/17 09:09:04;;;;;;;;;5.00;4.00;;;;;30.51;28.80;101305.56;5077917;27;45404;-51
2022/05/17 09:11:32;;;;;;;;;2.20;2.20;;;;;30.90;29.36;101309.66;5078443;28;45443;-50
2022/05/17 09:14:10;;;;;;;;;6.40;4.40;;;;;31.11;27.32;101310.41;5092888;27;48070;-49
2022/05/17 09:16:41;;;;;;;;;3.80;3.80;;;;;31.21;25.11;101314.72;5076741;27;45535;-49
2022/05/17 09:19:07;;;;;;;;;2.60;2.60;;;;;31.29;25.33;101303.56;5076217;28;45378;-51
2022/05/17 09:21:42;;;;;;;;;2.80;2.80;;;;;31.30;26.86;101302.50;5069089;27;45456;-50
2022/05/17 09:24:13;;;;;;;;;3.60;3.60;;;;;31.50;28.56;101300.66;5075751;27;45562;-48
2022/05/17 09:26:46;;;;;;;;;2.60;2.60;;;;;31.66;26.46;101304.97;5075408;28;45477;-66
2022/05/17 09:29:23;;;;;;;;;2.60;2.60;;;;;31.89;27.34;101299.09;5076994;28;45511;-67
2022/05/17 09:32:06;;;;;;;;;4.20;3.00;;;;;32.01;26.58;101293.84;5074104;28;45483;-65
2022/05/17 09:34:43;;;;;;;;;2.40;2.00;;;;;32.27;26.62;101291.94;5058933;28;46403;-61
2022/05/17 09:37:13;;;;;;;;;2.80;2.80;;;;;32.40;23.82;101293.88;5066509;28;45551;-62
2022/05/17 09:39:43;;;;;;;;;1.80;1.80;;;;;32.33;24.64;101290.31;5080652;27;45264;-63
2022/05/17 09:42:20;;;;;;;;;3.00;2.00;;;;;32.41;24.67;101289.22;5079313;28;45568;-60
2022/05/17 09:44:49;;;;;;;;;1.60;1.60;;;;;32.65;25.28;101287.72;5080086;28;45718;-60
2022/05/17 09:47:25;;;;;;;;;1.80;1.80;;;;;32.96;24.05;101290.66;5083109;27;45537;-69
2022/05/17 09:52:38;;;;;;;;;2.80;1.80;;;;;33.41;24.41;101272.25;5084526;28;45270;-66
2022/05/17 09:55:30;;;;;;;;;2.80;2.00;;;;;33.70;24.31;101281.00;5064821;28;45390;-65
2022/05/17 09:58:04;;;;;;;;;1.80;1.80;;;;;33.84;24.52;101277.09;5061073;28;45410;-68
2022/05/17 10:00:42;;;;;;;;;2.40;1.00;;;;;33.98;22.30;101275.97;5060975;28;45545;-62
2022/05/17 10:03:17;;;;;;;;;1.00;1.00;;;;;34.05;22.75;101284.19;5061911;28;45599;-64
2022/05/17 10:06:04;;;;;;;;;1.00;1.00;;;;;34.12;22.31;101279.50;5061806;28;46833;-66
2022/05/17 10:08:43;;;;;;;;;1.00;0.80;;;;;34.13;23.12;101274.81;5062561;28;45416;-64
2022/05/17 10:11:14;;;;;;;;;1.60;1.60;;;;;34.16;23.43;101274.34;5065565;28;45261;-62
2022/05/17 10:13:43;;;;;;;;;0.00;0.00;;;;;34.13;22.65;101274.81;5083085;28;45304;-61
2022/05/17 10:16:19;;;;;;;;;2.00;0.80;;;;;34.01;23.00;101271.94;5079123;28;46469;-64
2022/05/17 10:18:54;;;;;;;;;1.80;1.80;;;;;33.69;23.09;101269.13;5080440;28;45413;-70
2022/05/17 10:21:46;;;;;;;;;0.80;0.80;;;;;33.32;23.30;101265.28;5080845;28;45244;-64
2022/05/17 10:24:27;;;;;;;;;1.00;0.80;;;;;33.00;23.46;101263.50;5080525;27;45246;-69
2022/05/17 10:27:02;;;;;;;;;4.00;1.00;;;;;32.52;24.73;101266.56;5079701;28;46917;-61
2022/05/17 10:29:52;;;;;;;;;1.60;1.60;;;;;32.26;25.41;101262.72;5080230;27;45928;-60
2022/05/17 10:32:25;;;;;;;;;2.60;1.80;;;;;31.84;25.39;101258.47;5080997;28;45267;-67
2022/05/17 10:34:56;;;;;;;;;2.80;2.80;;;;;31.37;24.20;101256.63;5082838;28;45346;-70
2022/05/17 10:37:51;;;;;;;;;1.20;1.20;;;;;30.90;25.91;101239.09;5082779;27;45430;-66
2022/05/17 10:40:26;;;;;;;;;3.00;2.00;;;;;30.63;25.83;101245.50;5080641;28;45360;-66
2022/05/17 10:42:52;;;;;;;;;1.40;1.40;;;;;30.34;26.01;101235.53;5082522;27;45427;-72
2022/05/17 10:45:21;;;;;;;;;0.50;0.50;;;;;30.15;26.33;101237.06;5083846;28;45598;-70
2022/05/17 10:47:58;;;;;;;;;1.40;1.40;;;;;29.97;27.01;101229.31;5082276;28;45347;-62
2022/05/17 10:50:34;;;;;;;;;0.20;0.20;;;;;29.85;26.47;101239.13;5082288;27;45307;-61
2022/05/17 10:53:06;;;;;;;;;1.00;1.00;;;;;29.67;26.19;101228.59;5079286;28;45230;-61
2022/05/17 10:55:47;;;;;;;;;1.00;1.00;;;;;29.51;26.09;101221.47;5079875;27;45627;-61
2022/05/17 10:58:27;;;;;;;;;0.60;0.60;;;;;29.46;26.49;101223.06;5080023;27;45300;-66
2022/05/17 11:01:03;;;;;;;;;1.00;1.00;;;;;29.34;27.12;101215.38;5080452;27;45249;-68
2022/05/17 11:03:38;;;;;;;;;2.20;2.20;;;;;29.24;28.01;101225.78;5078780;28;45365;-60
2022/05/17 11:06:35;;;;;;;;;1.00;1.00;;;;;29.12;27.78;101219.09;5080001;28;45552;-66
2022/05/17 11:09:38;;;;;;;;;0.80;0.80;;;;;29.03;28.14;101220.22;5079005;28;47608;-64
2022/05/17 11:12:09;;;;;;;;;1.60;1.60;;;;;29.03;27.90;101218.34;5081132;27;45841;-64
2022/05/17 11:14:59;;;;;;;;;1.40;1.40;;;;;29.05;28.29;101215.44;5078991;28;45696;-63
2022/05/17 11:17:36;;;;;;;;;1.00;1.00;;;;;29.05;28.41;101199.84;5072877;27;45279;-64
2022/05/17 11:20:23;;;;;;;;;3.20;2.00;;;;;29.10;28.29;101193.78;5078136;28;47671;-62
2022/05/17 11:23:00;;;;;;;;;1.40;1.40;;;;;29.08;28.39;101190.41;5059692;28;45504;-64
2022/05/17 11:25:49;;;;;;;;;2.40;2.00;;;;;29.06;28.59;101195.22;5070296;28;45260;-62
2022/05/17 11:28:44;;;;;;;;;2.00;2.00;;;;;28.98;28.15;101192.59;5080821;28;45417;-65
2022/05/17 11:31:28;;;;;;;;;2.80;2.80;;;;;28.98;28.65;101181.63;5079782;27;45219;-68
2022/05/17 11:34:23;;;;;;;;;4.00;4.00;;;;;29.01;28.82;101194.94;5080239;28;45221;-66
2022/05/17 11:36:51;;;;;;;;;5.20;3.40;;;;;29.06;29.00;101182.38;5079918;28;45381;-65
2022/05/17 11:39:31;;;;;;;;;2.00;2.00;;;;;29.20;28.73;101188.88;5081046;27;45290;-64
2022/05/17 11:42:06;;;;;;;;;3.20;2.40;;;;;29.33;28.52;101180.78;5080743;28;46261;-68
2022/05/17 11:44:46;;;;;;;;;7.60;4.00;;;;;29.40;28.53;101180.00;5081216;28;45311;-62